createdAt,value
2023-03-06T00:00:39.469Z,100830.94
2023-03-06T00:03:06.300Z,100826.50
2023-03-06T00:05:32.813Z,100826.91
2023-03-06T00:07:59.600Z,100832.00
2023-03-06T00:10:28.719Z,100826.91
2023-03-06T00:12:57.602Z,100824.63
2023-03-06T00:15:25.846Z,100817.03
2023-03-06T00:17:53.178Z,100809.44
2023-03-06T00:20:20.680Z,100803.13
2023-03-06T00:22:47.235Z,100812.94
2023-03-06T00:25:19.253Z,100811.63
2023-03-06T00:27:45.789Z,100800.53
2023-03-06T00:30:15.618Z,100800.53
2023-03-06T00:32:42.772Z,100805.91
2023-03-06T00:35:10.004Z,100803.44
2023-03-06T00:37:36.949Z,100802.56
2023-03-06T00:40:07.849Z,100798.25
2023-03-06T00:42:34.336Z,100798.44
2023-03-06T00:45:01.076Z,100796.25
2023-03-06T00:47:27.829Z,100798.44
2023-03-06T00:49:54.290Z,100791.97
2023-03-06T00:52:20.816Z,100790.34
2023-03-06T00:54:47.225Z,100785.66
2023-03-06T00:57:13.633Z,100779.09
2023-03-06T00:59:40.380Z,100774.88
2023-03-06T01:02:06.907Z,100772.63
2023-03-06T01:04:33.509Z,100774.22
2023-03-06T01:07:00.186Z,100770.28
2023-03-06T01:09:26.654Z,100771.09
2023-03-06T01:11:53.094Z,100773.78
2023-03-06T01:14:19.608Z,100767.97
2023-03-06T01:16:46.823Z,100764.34
2023-03-06T01:19:13.371Z,100761.75
2023-03-06T01:21:39.959Z,100758.34
2023-03-06T01:24:06.607Z,100748.47
2023-03-06T01:26:33.469Z,100739.22
2023-03-06T01:29:00.486Z,100732.47
2023-03-06T01:31:27.073Z,100718.03
2023-03-06T01:33:53.721Z,100714.28
2023-03-06T01:36:20.280Z,100729.41
2023-03-06T01:38:46.742Z,100729.22
2023-03-06T01:41:15.956Z,100731.50
2023-03-06T01:43:45.141Z,100726.25
2023-03-06T01:46:26.369Z,100725.41
2023-03-06T01:48:56.862Z,100724.31
2023-03-06T01:51:27.197Z,100721.94
2023-03-06T01:53:54.567Z,100713.78
2023-03-06T01:56:21.630Z,100713.38
2023-03-06T01:58:49.560Z,100704.69
2023-03-06T02:01:17.284Z,100706.34
2023-03-06T02:03:44.270Z,100700.41
2023-03-06T02:06:11.027Z,100702.91
2023-03-06T02:08:37.930Z,100704.06
2023-03-06T02:11:19.676Z,100709.31
2023-03-06T02:13:47.660Z,100708.91
2023-03-06T02:16:16.440Z,100713.34
2023-03-06T02:18:44.160Z,100713.03
2023-03-06T02:21:20.125Z,100701.97
2023-03-06T02:24:24.269Z,100709.31
2023-03-06T02:26:52.588Z,100707.00
2023-03-06T02:29:25.865Z,100701.63
2023-03-06T02:31:52.558Z,100694.97
2023-03-06T02:34:18.979Z,100696.63
2023-03-06T02:36:49.017Z,100693.84
2023-03-06T02:39:17.996Z,100691.53
2023-03-06T02:41:44.432Z,100692.47
2023-03-06T02:44:11.020Z,100697.84
2023-03-06T02:46:37.446Z,100697.59
2023-03-06T02:49:03.964Z,100690.88
2023-03-06T02:51:30.536Z,100683.28
2023-03-06T02:53:57.005Z,100678.09
2023-03-06T02:56:23.432Z,100675.81
2023-03-06T02:58:50.011Z,100674.25
2023-03-06T03:01:16.548Z,100672.41
2023-03-06T03:03:43.043Z,100672.69
2023-03-06T03:06:09.595Z,100666.50
2023-03-06T03:08:36.450Z,100658.44
2023-03-06T03:11:03.739Z,100655.94
2023-03-06T03:13:30.298Z,100648.47
2023-03-06T03:16:02.275Z,100653.47
2023-03-06T03:18:28.949Z,100652.09
2023-03-06T03:20:55.776Z,100642.16
2023-03-06T03:23:22.737Z,100635.13
2023-03-06T03:25:49.199Z,100637.00
2023-03-06T03:28:16.249Z,100637.00
2023-03-06T03:30:43.057Z,100624.88
2023-03-06T03:33:09.740Z,100624.03
2023-03-06T03:35:36.827Z,100621.53
2023-03-06T03:38:03.635Z,100618.22
2023-03-06T03:40:30.090Z,100613.13
2023-03-06T03:42:56.755Z,100607.63
2023-03-06T03:45:23.319Z,100603.41
2023-03-06T03:47:49.827Z,100597.59
2023-03-06T03:50:16.382Z,100601.09
2023-03-06T03:52:42.888Z,100600.06
2023-03-06T03:55:09.473Z,100599.88
2023-03-06T03:57:36.053Z,100603.31
2023-03-06T04:00:02.497Z,100589.81
2023-03-06T04:02:29.004Z,100596.53
2023-03-06T04:04:55.568Z,100599.69
2023-03-06T04:07:22.016Z,100592.09
2023-03-06T04:09:49.075Z,100589.50
2023-03-06T04:12:15.600Z,100584.97
2023-03-06T04:14:42.057Z,100586.75
2023-03-06T04:17:08.464Z,100583.31
2023-03-06T04:19:34.895Z,100575.56
2023-03-06T04:22:02.285Z,100575.97
2023-03-06T04:24:28.715Z,100580.34
2023-03-06T04:26:55.282Z,100568.41
2023-03-06T04:29:21.789Z,100576.78
2023-03-06T04:31:48.368Z,100569.13
2023-03-06T04:34:14.933Z,100569.94
2023-03-06T04:36:45.115Z,100572.00
2023-03-06T04:39:12.952Z,100572.25
2023-03-06T04:41:40.502Z,100573.25
2023-03-06T04:44:07.700Z,100569.53
2023-03-06T04:46:35.048Z,100556.09
2023-03-06T04:49:01.882Z,100561.38
2023-03-06T04:51:28.350Z,100560.03
2023-03-06T04:53:54.773Z,100558.44
2023-03-06T04:56:21.417Z,100553.19
2023-03-06T04:58:47.829Z,100561.25
2023-03-06T05:01:14.268Z,100556.06
2023-03-06T05:03:40.937Z,100554.13
2023-03-06T05:06:07.485Z,100551.41
2023-03-06T05:08:33.976Z,100547.69
2023-03-06T05:11:01.804Z,100539.00
2023-03-06T05:13:28.637Z,100543.16
2023-03-06T05:15:55.230Z,100544.19
2023-03-06T05:18:21.827Z,100549.78
2023-03-06T05:20:48.283Z,100535.91
2023-03-06T05:23:14.729Z,100532.19
2023-03-06T05:25:41.531Z,100530.66
2023-03-06T05:28:08.355Z,100529.19
2023-03-06T05:30:34.782Z,100520.78
2023-03-06T05:33:01.308Z,100527.19
2023-03-06T05:35:28.108Z,100522.44
2023-03-06T05:37:54.824Z,100520.66
2023-03-06T05:40:21.342Z,100519.72
2023-03-06T05:42:47.871Z,100520.56
2023-03-06T05:45:14.312Z,100523.44
2023-03-06T05:47:40.996Z,100519.53
2023-03-06T05:50:08.337Z,100520.66
2023-03-06T05:52:34.840Z,100517.56
2023-03-06T05:55:01.419Z,100509.50
2023-03-06T05:57:27.935Z,100513.44
2023-03-06T05:59:54.391Z,100516.84
2023-03-06T06:02:20.934Z,100507.94
2023-03-06T06:04:47.521Z,100514.91
2023-03-06T06:07:15.616Z,100511.16
2023-03-06T06:09:43.532Z,100512.31
2023-03-06T06:12:09.897Z,100515.63
2023-03-06T06:14:36.357Z,100519.06
2023-03-06T06:17:03.019Z,100519.16
2023-03-06T06:19:30.947Z,100515.00
2023-03-06T06:21:57.683Z,100506.53
2023-03-06T06:24:26.263Z,100506.31
2023-03-06T06:26:55.465Z,100509.94
2023-03-06T06:29:22.769Z,100511.47
2023-03-06T06:31:50.254Z,100505.69
2023-03-06T06:34:16.900Z,100505.16
2023-03-06T06:36:43.764Z,100505.56
2023-03-06T06:39:13.669Z,100506.19
2023-03-06T06:41:56.964Z,100505.19
2023-03-06T06:44:27.073Z,100502.59
2023-03-06T06:49:40.492Z,100505.69
2023-03-06T06:52:07.575Z,100501.03
2023-03-06T06:54:34.683Z,100509.84
2023-03-06T06:57:01.299Z,100507.03
2023-03-06T06:59:27.770Z,100510.88
2023-03-06T07:01:54.194Z,100516.78
2023-03-06T07:04:20.758Z,100521.03
2023-03-06T07:06:47.200Z,100519.78
2023-03-06T07:09:14.268Z,100525.06
2023-03-06T07:11:41.421Z,100515.53
2023-03-06T07:14:07.882Z,100517.91
2023-03-06T07:16:34.350Z,100514.91
2023-03-06T07:19:00.817Z,100516.56
2023-03-06T07:21:27.281Z,100518.09
2023-03-06T07:23:54.313Z,100519.47
2023-03-06T07:26:20.883Z,100525.25
2023-03-06T07:28:52.617Z,100522.03
2023-03-06T07:31:22.203Z,100528.47
2023-03-06T07:33:52.530Z,100531.16
2023-03-06T07:36:19.269Z,100519.94
2023-03-06T07:38:45.897Z,100526.91
2023-03-06T07:41:13.823Z,100530.72
2023-03-06T07:43:41.435Z,100530.94
2023-03-06T07:46:08.737Z,100531.66
2023-03-06T07:48:36.565Z,100529.88
2023-03-06T07:51:06.393Z,100527.41
2023-03-06T07:53:33.978Z,100534.44
2023-03-06T07:56:00.590Z,100531.03
2023-03-06T07:58:27.312Z,100536.38
2023-03-06T08:00:53.826Z,100535.34
2023-03-06T08:03:20.248Z,100535.63
2023-03-06T08:05:46.715Z,100532.47
2023-03-06T08:08:13.231Z,100536.84
2023-03-06T08:10:39.710Z,100534.44
2023-03-06T08:13:06.236Z,100529.97
2023-03-06T08:15:32.876Z,100533.78
2023-03-06T08:17:59.355Z,100530.50
2023-03-06T08:20:25.927Z,100539.50
2023-03-06T08:22:52.518Z,100539.06
2023-03-06T08:25:19.024Z,100529.63
2023-03-06T08:27:47.345Z,100533.25
2023-03-06T08:30:14.105Z,100534.69
2023-03-06T08:32:40.570Z,100539.41
2023-03-06T08:35:08.185Z,100538.50
2023-03-06T08:37:34.815Z,100538.03
2023-03-06T08:40:04.439Z,100538.09
2023-03-06T08:42:32.258Z,100544.16
2023-03-06T08:44:58.855Z,100541.44
2023-03-06T08:47:25.419Z,100545.97
2023-03-06T08:49:51.966Z,100549.97
2023-03-06T08:52:20.008Z,100556.25
2023-03-06T08:54:46.726Z,100558.97
2023-03-06T08:57:13.327Z,100552.84
2023-03-06T08:59:39.856Z,100553.91
2023-03-06T09:02:07.589Z,100550.53
2023-03-06T09:04:34.486Z,100545.88
2023-03-06T09:07:01.443Z,100545.78
2023-03-06T09:09:28.104Z,100545.41
2023-03-06T09:11:54.904Z,100543.28
2023-03-06T09:14:21.490Z,100543.78
2023-03-06T09:16:48.048Z,100540.34
2023-03-06T09:19:14.622Z,100543.28
2023-03-06T09:21:41.324Z,100541.41
2023-03-06T09:24:08.230Z,100535.88
2023-03-06T09:26:51.605Z,100534.19
2023-03-06T09:29:18.409Z,100531.13
2023-03-06T09:31:45.673Z,100541.63
2023-03-06T09:34:12.289Z,100535.50
2023-03-06T09:36:54.971Z,100537.72
2023-03-06T09:39:22.954Z,100534.06
2023-03-06T09:41:50.864Z,100536.53
2023-03-06T09:44:22.668Z,100535.59
2023-03-06T09:47:10.809Z,100539.03
2023-03-06T09:49:46.327Z,100535.34
2023-03-06T09:52:12.931Z,100533.56
2023-03-06T09:54:47.189Z,100540.06
2023-03-06T09:57:21.696Z,100537.22
2023-03-06T09:59:51.750Z,100544.53
2023-03-06T10:02:26.844Z,100544.53
2023-03-06T10:05:01.653Z,100542.13
2023-03-06T10:07:50.729Z,100543.78
2023-03-06T10:10:24.131Z,100542.94
2023-03-06T10:13:05.535Z,100545.19
2023-03-06T10:15:38.472Z,100542.94
2023-03-06T10:18:05.555Z,100546.94
2023-03-06T10:20:44.693Z,100549.22
2023-03-06T10:23:24.178Z,100543.47
2023-03-06T10:25:53.445Z,100550.97
2023-03-06T10:28:27.772Z,100541.03
2023-03-06T10:31:03.982Z,100542.63
2023-03-06T10:33:43.661Z,100539.00
2023-03-06T10:36:16.866Z,100541.88
2023-03-06T10:38:44.828Z,100536.16
2023-03-06T10:41:11.260Z,100540.31
2023-03-06T10:43:43.321Z,100551.34
2023-03-06T10:46:12.798Z,100543.06
2023-03-06T10:48:42.293Z,100540.25
2023-03-06T10:51:21.876Z,100537.59
2023-03-06T10:53:56.122Z,100538.19
2023-03-06T10:56:40.497Z,100535.63
2023-03-06T10:59:17.036Z,100535.66
2023-03-06T11:01:45.723Z,100537.72
2023-03-06T11:04:29.393Z,100540.91
2023-03-06T11:07:07.235Z,100544.75
2023-03-06T11:09:34.104Z,100546.69
2023-03-06T11:12:33.888Z,100536.50
2023-03-06T11:15:06.266Z,100535.38
2023-03-06T11:17:35.222Z,100530.03
2023-03-06T11:20:23.746Z,100531.81
2023-03-06T11:23:04.124Z,100529.38
2023-03-06T11:25:53.864Z,100525.91
2023-03-06T11:28:29.780Z,100534.16
2023-03-06T11:31:13.547Z,100526.84
2023-03-06T11:33:47.534Z,100515.69
2023-03-06T11:36:20.129Z,100517.06
2023-03-06T11:38:51.565Z,100522.34
2023-03-06T11:41:49.739Z,100515.84
2023-03-06T11:44:35.298Z,100515.59
2023-03-06T11:47:23.892Z,100512.84
2023-03-06T11:49:53.075Z,100500.84
2023-03-06T11:52:28.173Z,100495.94
2023-03-06T11:54:57.234Z,100500.34
2023-03-06T11:57:42.278Z,100509.38
2023-03-06T12:00:29.307Z,100504.47
2023-03-06T12:03:09.266Z,100493.69
2023-03-06T12:05:52.428Z,100487.94
2023-03-06T12:08:51.270Z,100483.22
2023-03-06T12:11:23.387Z,100488.44
2023-03-06T12:14:06.557Z,100486.13
2023-03-06T12:17:00.320Z,100480.75
2023-03-06T12:19:43.171Z,100491.22
2023-03-06T12:22:12.668Z,100475.50
2023-03-06T12:24:59.065Z,100476.38
2023-03-06T12:27:28.651Z,100478.59
2023-03-06T12:30:29.235Z,100475.03
2023-03-06T12:33:14.079Z,100476.94
2023-03-06T12:35:54.883Z,100469.94
2023-03-06T12:38:48.929Z,100473.91
2023-03-06T12:41:32.396Z,100464.03
2023-03-06T12:44:38.643Z,100463.75
2023-03-06T12:47:10.252Z,100463.19
2023-03-06T12:49:41.600Z,100455.59
2023-03-06T12:52:11.020Z,100463.75
2023-03-06T12:54:40.765Z,100457.28
2023-03-06T12:57:09.284Z,100451.50
2023-03-06T12:59:42.261Z,100449.44
2023-03-06T13:02:36.384Z,100439.94
2023-03-06T13:05:24.060Z,100433.16
2023-03-06T13:08:02.923Z,100431.91
2023-03-06T13:10:34.200Z,100427.84
2023-03-06T13:13:04.992Z,100426.28
2023-03-06T13:15:35.166Z,100422.09
2023-03-06T13:18:22.436Z,100420.22
2023-03-06T13:20:50.097Z,100413.28
2023-03-06T13:23:43.931Z,100411.47
2023-03-06T13:26:30.230Z,100409.81
2023-03-06T13:28:58.292Z,100413.41
2023-03-06T13:31:33.549Z,100396.00
2023-03-06T13:34:05.036Z,100404.13
2023-03-06T13:36:33.312Z,100410.69
2023-03-06T13:39:04.866Z,100397.78
2023-03-06T13:41:31.221Z,100391.53
2023-03-06T13:44:00.130Z,100391.34
2023-03-06T13:46:35.270Z,100397.22
2023-03-06T13:49:16.018Z,100394.09
2023-03-06T13:51:48.184Z,100388.16
2023-03-06T13:54:44.061Z,100385.19
2023-03-06T13:57:35.949Z,100386.03
2023-03-06T14:00:19.710Z,100381.50
2023-03-06T14:03:23.850Z,100376.50
2023-03-06T14:05:51.437Z,100368.53
2023-03-06T14:08:33.973Z,100368.09
2023-03-06T14:11:20.548Z,100371.47
2023-03-06T14:13:53.308Z,100365.78
2023-03-06T14:16:26.010Z,100360.69
2023-03-06T14:18:56.234Z,100358.13
2023-03-06T14:21:51.579Z,100363.03
2023-03-06T14:24:33.399Z,100353.53
2023-03-06T14:27:00.547Z,100355.06
2023-03-06T14:29:29.795Z,100350.84
2023-03-06T14:31:59.158Z,100353.06
2023-03-06T14:34:26.686Z,100351.25
2023-03-06T14:37:00.059Z,100344.69
2023-03-06T14:39:39.497Z,100341.50
2023-03-06T14:42:19.977Z,100340.84
2023-03-06T14:44:48.004Z,100335.78
2023-03-06T14:47:33.013Z,100336.72
2023-03-06T14:50:24.296Z,100330.56
2023-03-06T14:52:55.901Z,100330.84
2023-03-06T14:55:25.314Z,100326.34
2023-03-06T14:58:25.564Z,100332.00
2023-03-06T15:00:55.084Z,100341.63
2023-03-06T15:03:27.785Z,100337.75
2023-03-06T15:05:55.253Z,100335.00
2023-03-06T15:08:26.637Z,100326.34
2023-03-06T15:11:11.780Z,100328.25
2023-03-06T15:13:38.526Z,100325.34
2023-03-06T15:16:27.970Z,100315.16
2023-03-06T15:19:01.549Z,100321.31
2023-03-06T15:21:38.063Z,100316.41
2023-03-06T15:24:32.098Z,100305.72
2023-03-06T15:27:04.854Z,100301.16
2023-03-06T15:29:31.618Z,100303.34
2023-03-06T15:32:14.915Z,100299.38
2023-03-06T15:34:41.437Z,100289.53
2023-03-06T15:37:27.747Z,100292.66
2023-03-06T15:40:18.173Z,100285.56
2023-03-06T15:42:44.768Z,100275.38
2023-03-06T15:45:16.623Z,100272.13
2023-03-06T15:47:44.813Z,100266.63
2023-03-06T15:50:16.883Z,100262.78
2023-03-06T15:52:44.917Z,100267.84
2023-03-06T15:55:13.629Z,100265.09
2023-03-06T15:58:03.457Z,100263.84
2023-03-06T16:00:34.066Z,100264.13
2023-03-06T16:03:02.847Z,100264.50
2023-03-06T16:05:29.346Z,100267.50
2023-03-06T16:07:56.288Z,100262.50
2023-03-06T16:10:25.380Z,100258.75
2023-03-06T16:12:56.043Z,100259.41
2023-03-06T16:15:26.936Z,100257.41
2023-03-06T16:17:53.412Z,100252.09
2023-03-06T16:20:22.714Z,100241.25
2023-03-06T16:22:53.820Z,100247.25
2023-03-06T16:25:22.558Z,100235.69
2023-03-06T16:27:58.816Z,100238.41
2023-03-06T16:30:28.701Z,100228.00
2023-03-06T16:32:55.358Z,100234.19
2023-03-06T16:35:21.953Z,100230.59
2023-03-06T16:37:48.651Z,100227.75
2023-03-06T16:40:19.952Z,100222.81
2023-03-06T16:42:46.912Z,100215.28
2023-03-06T16:45:13.974Z,100224.53
2023-03-06T16:47:40.646Z,100223.03
2023-03-06T16:50:16.765Z,100212.03
2023-03-06T16:52:43.269Z,100218.97
2023-03-06T16:55:09.867Z,100216.59
2023-03-06T16:57:36.404Z,100206.06
2023-03-06T17:00:03.188Z,100212.38
2023-03-06T17:02:29.700Z,100212.53
2023-03-06T17:04:56.308Z,100206.06
2023-03-06T17:07:22.781Z,100213.47
2023-03-06T17:09:49.299Z,100211.59
2023-03-06T17:12:15.853Z,100215.09
2023-03-06T17:14:42.241Z,100210.47
2023-03-06T17:17:08.661Z,100211.00
2023-03-06T17:19:35.137Z,100205.59
2023-03-06T17:22:01.615Z,100201.16
2023-03-06T17:24:28.128Z,100201.91
2023-03-06T17:26:54.744Z,100204.88
2023-03-06T17:29:21.226Z,100201.44
2023-03-06T17:31:47.815Z,100201.38
2023-03-06T17:34:14.286Z,100198.34
2023-03-06T17:36:40.765Z,100200.06
2023-03-06T17:39:07.223Z,100187.31
2023-03-06T17:41:34.291Z,100185.88
2023-03-06T17:44:01.787Z,100191.09
2023-03-06T17:46:28.547Z,100184.38
2023-03-06T17:48:55.446Z,100185.50
2023-03-06T17:51:21.879Z,100185.19
2023-03-06T17:53:49.204Z,100177.19
2023-03-06T17:56:16.049Z,100178.25
2023-03-06T17:58:42.443Z,100183.19
2023-03-06T18:01:11.119Z,100183.66
2023-03-06T18:03:38.706Z,100183.19
2023-03-06T18:06:09.344Z,100182.72
2023-03-06T18:08:37.047Z,100182.38
2023-03-06T18:11:06.351Z,100172.00
2023-03-06T18:13:33.916Z,100171.41
2023-03-06T18:16:01.409Z,100180.84
2023-03-06T18:18:28.552Z,100170.72
2023-03-06T18:20:55.314Z,100166.00
2023-03-06T18:23:23.326Z,100160.94
2023-03-06T18:25:50.325Z,100156.44
2023-03-06T18:28:16.839Z,100165.66
2023-03-06T18:30:43.351Z,100147.47
2023-03-06T18:33:10.355Z,100148.78
2023-03-06T18:35:36.886Z,100155.84
2023-03-06T18:38:03.438Z,100138.50
2023-03-06T18:40:30.026Z,100138.28
2023-03-06T18:42:56.576Z,100142.06
2023-03-06T18:45:23.175Z,100132.97
2023-03-06T18:47:49.768Z,100123.53
2023-03-06T18:50:17.462Z,100119.78
2023-03-06T18:52:44.623Z,100116.69
2023-03-06T18:55:11.694Z,100113.28
2023-03-06T18:57:38.783Z,100104.66
2023-03-06T19:00:06.615Z,100100.66
2023-03-06T19:02:33.082Z,100100.53
2023-03-06T19:04:59.594Z,100095.72
2023-03-06T19:07:26.018Z,100084.97
2023-03-06T19:09:52.661Z,100077.69
2023-03-06T19:12:19.151Z,100084.22
2023-03-06T19:14:45.801Z,100093.09
2023-03-06T19:17:12.418Z,100071.59
2023-03-06T19:19:39.040Z,100081.38
2023-03-06T19:22:05.964Z,100070.91
2023-03-06T19:24:32.398Z,100070.19
2023-03-06T19:26:58.853Z,100068.88
2023-03-06T19:29:28.599Z,100061.72
2023-03-06T19:31:57.199Z,100060.41
2023-03-06T19:34:23.757Z,100059.00
2023-03-06T19:36:50.915Z,100042.91
2023-03-06T19:39:17.596Z,100040.59
2023-03-06T19:41:46.625Z,100044.94
2023-03-06T19:44:14.584Z,100038.09
2023-03-06T19:46:41.506Z,100025.94
2023-03-06T19:49:12.133Z,100031.63
2023-03-06T19:51:39.112Z,100025.06
2023-03-06T19:54:05.892Z,100034.97
2023-03-06T19:56:33.606Z,100026.59
2023-03-06T19:59:00.197Z,100020.88
2023-03-06T20:01:28.200Z,100010.84
2023-03-06T20:03:59.170Z,100015.91
2023-03-06T20:06:28.507Z,100006.72
2023-03-06T20:08:55.282Z,99998.38
2023-03-06T20:11:26.777Z,100001.53
2023-03-06T20:13:53.668Z,99995.78
2023-03-06T20:16:20.676Z,99993.69
2023-03-06T20:18:47.195Z,99984.72
2023-03-06T20:21:14.422Z,99982.38
2023-03-06T20:23:41.783Z,99975.75
2023-03-06T20:26:12.019Z,99969.63
2023-03-06T20:28:40.025Z,99962.06
2023-03-06T20:31:13.372Z,99962.22
2023-03-06T20:33:40.310Z,99963.16
2023-03-06T20:36:26.756Z,99980.31
2023-03-06T20:38:53.247Z,99960.41
2023-03-06T20:41:23.598Z,99947.31
2023-03-06T20:43:50.332Z,99953.31
2023-03-06T20:46:17.909Z,99944.13
2023-03-06T20:48:47.610Z,99945.72
2023-03-06T20:51:35.981Z,99938.47
2023-03-06T20:54:02.632Z,99943.94
2023-03-06T20:56:32.006Z,99929.66
2023-03-06T20:58:59.526Z,99928.25
2023-03-06T21:01:33.468Z,99926.47
2023-03-06T21:04:01.577Z,99915.97
2023-03-06T21:06:28.740Z,99924.59
2023-03-06T21:08:56.404Z,99919.28
2023-03-06T21:11:23.103Z,99909.25
2023-03-06T21:13:49.593Z,99905.50
2023-03-06T21:16:18.416Z,99901.31
2023-03-06T21:18:45.592Z,99902.97
2023-03-06T21:21:20.424Z,99899.22
2023-03-06T21:23:48.085Z,99903.22
2023-03-06T21:26:17.844Z,99892.25
2023-03-06T21:28:44.342Z,99889.66
2023-03-06T21:31:12.709Z,99876.00
2023-03-06T21:33:40.100Z,99866.22
2023-03-06T21:36:07.096Z,99871.28
2023-03-06T21:38:34.421Z,99858.16
2023-03-06T21:41:13.467Z,99854.13
2023-03-06T21:43:40.779Z,99855.22
2023-03-06T21:46:07.545Z,99848.94
2023-03-06T21:48:34.132Z,99848.00
2023-03-06T21:51:19.132Z,99847.72
2023-03-06T21:53:47.199Z,99839.81
2023-03-06T21:56:15.526Z,99840.91
2023-03-06T21:58:42.188Z,99839.81
2023-03-06T22:01:14.258Z,99836.59
2023-03-06T22:03:40.738Z,99828.94
2023-03-06T22:06:12.940Z,99828.00
2023-03-06T22:08:40.364Z,99822.19
2023-03-06T22:11:13.252Z,99821.09
2023-03-06T22:13:39.915Z,99808.94
2023-03-06T22:16:07.069Z,99807.84
2023-03-06T22:18:34.998Z,99799.94
2023-03-06T22:21:07.115Z,99807.06
2023-03-06T22:23:33.546Z,99786.44
2023-03-06T22:26:12.407Z,99788.53
2023-03-06T22:28:39.673Z,99782.25
2023-03-06T22:31:08.499Z,99790.16
2023-03-06T22:33:35.001Z,99799.44
2023-03-06T22:36:07.677Z,99785.50
2023-03-06T22:38:45.115Z,99796.31
2023-03-06T22:41:13.563Z,99784.41
2023-03-06T22:43:40.144Z,99796.13
2023-03-06T22:46:09.329Z,99782.94
2023-03-06T22:48:36.068Z,99796.03
2023-03-06T22:51:16.639Z,99775.03
2023-03-06T22:53:43.871Z,99779.38
2023-03-06T22:56:12.421Z,99778.31
2023-03-06T22:58:39.473Z,99778.88
2023-03-06T23:01:10.117Z,99769.19
2023-03-06T23:03:39.537Z,99777.66
2023-03-06T23:06:11.540Z,99774.22
2023-03-06T23:08:38.635Z,99784.75
2023-03-06T23:11:14.581Z,99781.19
2023-03-06T23:13:41.056Z,99777.50
2023-03-06T23:16:09.038Z,99771.25
2023-03-06T23:18:37.048Z,99773.84
2023-03-06T23:21:21.499Z,99762.34
2023-03-06T23:23:49.936Z,99764.97
2023-03-06T23:26:17.393Z,99763.59
2023-03-06T23:28:43.942Z,99764.53
2023-03-06T23:31:14.314Z,99760.88
2023-03-06T23:33:41.623Z,99758.84
2023-03-06T23:36:14.825Z,99756.94
2023-03-06T23:38:41.948Z,99755.16
2023-03-06T23:41:12.679Z,99762.94
2023-03-06T23:43:39.732Z,99759.78
2023-03-06T23:46:07.302Z,99762.38
2023-03-06T23:48:35.670Z,99753.50
2023-03-06T23:51:12.846Z,99753.50
2023-03-06T23:53:39.323Z,99754.19
2023-03-06T23:56:06.855Z,99761.97
2023-03-06T23:58:33.916Z,99758.56
